createdAt,value
2018-07-04T00:02:44.610Z,101360.79
2018-07-04T00:05:31.915Z,101359.95
2018-07-04T00:08:18.531Z,101359.13
2018-07-04T00:11:05.279Z,101360.80
2018-07-04T00:13:52.073Z,101357.85
2018-07-04T00:16:40.523Z,101358.24
2018-07-04T00:19:27.029Z,101354.06
2018-07-04T00:22:07.646Z,101354.91
2018-07-04T00:24:54.047Z,101353.66
2018-07-04T00:27:40.447Z,101358.68
2018-07-04T00:30:26.758Z,101356.98
2018-07-04T00:33:13.442Z,101354.06
2018-07-04T00:36:00.076Z,101367.02
2018-07-04T00:38:46.559Z,101369.49
2018-07-04T00:41:32.963Z,101363.19
2018-07-04T00:44:19.287Z,101364.83
2018-07-04T00:47:05.758Z,101367.28
2018-07-04T00:49:52.041Z,101365.87
2018-07-04T00:52:32.419Z,101365.83
2018-07-04T00:55:18.859Z,101365.31
2018-07-04T00:58:07.246Z,101362.73
2018-07-04T01:00:53.589Z,101361.88
2018-07-04T01:03:40.105Z,101363.53
2018-07-04T01:06:26.362Z,101370.61
2018-07-04T01:09:07.304Z,101372.30
2018-07-04T01:11:55.309Z,101372.64
2018-07-04T01:14:41.698Z,101372.61
2018-07-04T01:17:28.307Z,101376.73
2018-07-04T01:20:14.519Z,101367.86
2018-07-04T01:23:00.885Z,101372.28
2018-07-04T01:25:41.531Z,101363.72
2018-07-04T01:28:33.465Z,101369.61
2018-07-04T01:31:20.272Z,101368.63
2018-07-04T01:34:07.486Z,101369.95
2018-07-04T01:36:53.968Z,101367.95
2018-07-04T01:39:40.430Z,101357.12
2018-07-04T01:42:21.836Z,101363.84
2018-07-04T01:45:08.383Z,101368.01
2018-07-04T01:47:54.850Z,101362.59
2018-07-04T01:50:41.982Z,101365.54
2018-07-04T01:53:28.504Z,101362.84
2018-07-04T01:56:14.762Z,101365.89
2018-07-04T01:59:01.266Z,101360.11
2018-07-04T02:01:47.827Z,101350.99
2018-07-04T02:04:34.267Z,101356.03
2018-07-04T02:07:14.668Z,101354.44
2018-07-04T02:10:01.350Z,101353.69
2018-07-04T02:12:47.596Z,101359.41
2018-07-04T02:15:33.838Z,101371.47
2018-07-04T02:18:21.031Z,101376.03
2018-07-04T02:21:07.515Z,101372.14
2018-07-04T02:23:54.502Z,101368.83
2018-07-04T02:26:41.035Z,101373.38
2018-07-04T02:29:28.739Z,101367.98
2018-07-04T02:32:15.550Z,101373.89
2018-07-04T02:35:02.172Z,101369.30
2018-07-04T02:37:49.881Z,101366.77
2018-07-04T02:40:36.234Z,101363.78
2018-07-04T02:43:22.749Z,101367.89
2018-07-04T02:46:09.012Z,101363.26
2018-07-04T02:48:56.579Z,101364.38
2018-07-04T02:51:43.453Z,101364.82
2018-07-04T02:54:29.778Z,101364.78
2018-07-04T02:57:16.228Z,101358.05
2018-07-04T03:00:02.590Z,101360.46
2018-07-04T03:02:48.974Z,101355.50
2018-07-04T03:05:35.380Z,101354.08
2018-07-04T03:08:21.752Z,101350.88
2018-07-04T03:11:08.717Z,101343.55
2018-07-04T03:13:54.969Z,101348.19
2018-07-04T03:16:41.331Z,101344.36
2018-07-04T03:19:27.753Z,101343.51
2018-07-04T03:22:13.986Z,101341.64
2018-07-04T03:25:00.474Z,101346.86
2018-07-04T03:27:47.149Z,101343.65
2018-07-04T03:30:34.836Z,101351.55
2018-07-04T03:33:21.214Z,101355.29
2018-07-04T03:36:08.910Z,101347.89
2018-07-04T03:38:55.482Z,101344.41
2018-07-04T03:41:42.159Z,101356.09
2018-07-04T03:44:28.499Z,101353.66
2018-07-04T03:47:15.177Z,101352.12
2018-07-04T03:50:01.704Z,101356.84
2018-07-04T03:52:48.128Z,101347.45
2018-07-04T03:55:34.814Z,101356.98
2018-07-04T03:58:21.369Z,101353.86
2018-07-04T04:01:08.734Z,101350.77
2018-07-04T04:03:55.263Z,101354.63
2018-07-04T04:06:41.836Z,101354.67
2018-07-04T04:09:29.111Z,101358.98
2018-07-04T04:12:16.493Z,101358.35
2018-07-04T04:15:02.826Z,101354.71
2018-07-04T04:17:49.916Z,101361.80
2018-07-04T04:20:36.201Z,101351.09
2018-07-04T04:23:22.631Z,101351.56
2018-07-04T04:26:09.007Z,101354.53
2018-07-04T04:28:55.445Z,101354.25
2018-07-04T04:31:41.926Z,101360.62
2018-07-04T04:34:28.310Z,101357.39
2018-07-04T04:37:14.729Z,101366.66
2018-07-04T04:40:01.266Z,101360.53
2018-07-04T04:42:47.725Z,101353.97
2018-07-04T04:45:34.056Z,101356.97
2018-07-04T04:48:20.834Z,101365.33
2018-07-04T04:51:07.277Z,101355.41
2018-07-04T04:53:53.793Z,101366.76
2018-07-04T04:56:40.706Z,101362.19
2018-07-04T04:59:27.449Z,101364.31
2018-07-04T05:02:07.840Z,101363.92
2018-07-04T05:04:54.462Z,101361.48
2018-07-04T05:07:41.013Z,101366.94
2018-07-04T05:10:27.268Z,101363.67
2018-07-04T05:13:13.846Z,101367.00
2018-07-04T05:15:54.199Z,101356.59
2018-07-04T05:18:40.861Z,101356.59
2018-07-04T05:21:27.236Z,101356.22
2018-07-04T05:24:13.790Z,101358.30
2018-07-04T05:27:00.278Z,101350.77
2018-07-04T05:29:46.997Z,101355.41
2018-07-04T05:32:33.477Z,101348.72
2018-07-04T05:35:19.922Z,101355.84
2018-07-04T05:38:06.479Z,101354.98
2018-07-04T05:40:53.258Z,101355.83
2018-07-04T05:43:33.799Z,101352.05
2018-07-04T05:46:14.561Z,101356.65
2018-07-04T05:49:01.009Z,101357.92
2018-07-04T05:51:47.305Z,101358.31
2018-07-04T05:54:27.736Z,101355.41
2018-07-04T05:57:14.091Z,101362.08
2018-07-04T06:00:00.440Z,101362.06
2018-07-04T06:02:46.843Z,101362.48
2018-07-04T06:05:33.304Z,101356.61
2018-07-04T06:08:19.994Z,101359.52
2018-07-04T06:11:06.540Z,101359.07
2018-07-04T06:13:53.117Z,101351.95
2018-07-04T06:16:39.913Z,101348.16
2018-07-04T06:19:26.449Z,101348.09
2018-07-04T06:22:12.827Z,101347.66
2018-07-04T06:24:59.357Z,101338.39
2018-07-04T06:27:46.630Z,101346.38
2018-07-04T06:30:27.135Z,101347.21
2018-07-04T06:33:13.746Z,101343.06
2018-07-04T06:36:00.818Z,101346.45
2018-07-04T06:38:28.579Z,101345.58
2018-07-04T06:40:56.476Z,101334.34
2018-07-04T06:43:24.541Z,101341.81
2018-07-04T06:45:52.746Z,101340.54
2018-07-04T06:48:20.527Z,101345.95
2018-07-04T06:50:48.302Z,101343.41
2018-07-04T06:53:16.058Z,101340.45
2018-07-04T06:55:43.845Z,101341.60
2018-07-04T06:58:11.605Z,101342.08
2018-07-04T07:00:39.368Z,101345.85
2018-07-04T07:03:25.870Z,101346.98
2018-07-04T07:06:12.238Z,101338.55
2018-07-04T07:08:58.647Z,101338.18
2018-07-04T07:11:45.253Z,101333.01
2018-07-04T07:14:31.759Z,101327.64
2018-07-04T07:17:18.042Z,101329.22
2018-07-04T07:20:04.469Z,101331.69
2018-07-04T07:22:50.864Z,101326.11
2018-07-04T07:25:37.271Z,101333.62
2018-07-04T07:28:23.809Z,101332.31
2018-07-04T07:31:10.297Z,101327.30
2018-07-04T07:33:56.798Z,101325.59
2018-07-04T07:36:43.736Z,101328.45
2018-07-04T07:39:30.132Z,101321.64
2018-07-04T07:42:16.508Z,101322.45
2018-07-04T07:45:02.976Z,101323.71
2018-07-04T07:47:43.431Z,101324.89
2018-07-04T07:50:29.772Z,101323.56
2018-07-04T07:53:16.289Z,101315.42
2018-07-04T07:56:02.597Z,101316.20
2018-07-04T07:58:49.216Z,101312.09
2018-07-04T08:01:35.705Z,101305.27
2018-07-04T08:04:22.409Z,101315.45
2018-07-04T08:07:09.042Z,101304.87
2018-07-04T08:09:55.600Z,101302.60
2018-07-04T08:12:42.223Z,101302.98
2018-07-04T08:15:28.706Z,101295.20
2018-07-04T08:18:15.231Z,101299.19
2018-07-04T08:21:01.534Z,101290.91
2018-07-04T08:23:48.020Z,101297.63
2018-07-04T08:26:34.583Z,101294.43
2018-07-04T08:29:21.096Z,101289.97
2018-07-04T08:32:07.722Z,101287.22
2018-07-04T08:34:48.477Z,101284.52
2018-07-04T08:37:35.149Z,101283.14
2018-07-04T08:40:21.737Z,101279.92
2018-07-04T08:43:08.293Z,101280.39
2018-07-04T08:45:54.889Z,101274.36
2018-07-04T08:48:41.225Z,101276.20
2018-07-04T08:51:21.727Z,101272.23
2018-07-04T08:54:08.342Z,101279.62
2018-07-04T08:56:54.620Z,101278.95
2018-07-04T08:59:41.000Z,101274.89
2018-07-04T09:02:21.496Z,101271.98
2018-07-04T09:05:08.012Z,101273.63
2018-07-04T09:07:54.539Z,101274.82
2018-07-04T09:10:41.382Z,101269.98
2018-07-04T09:13:21.895Z,101269.27
2018-07-04T09:16:08.173Z,101272.64
2018-07-04T09:18:54.697Z,101267.22
2018-07-04T09:21:41.345Z,101271.84
2018-07-04T09:24:27.847Z,101268.78
2018-07-04T09:27:14.380Z,101273.41
2018-07-04T09:30:00.964Z,101263.25
2018-07-04T09:32:47.415Z,101264.27
2018-07-04T09:35:33.824Z,101268.98
2018-07-04T09:38:20.381Z,101255.64
2018-07-04T09:41:06.945Z,101260.84
2018-07-04T09:43:53.836Z,101252.84
2018-07-04T09:46:40.356Z,101243.89
2018-07-04T09:49:26.755Z,101252.53
2018-07-04T09:52:13.272Z,101251.00
2018-07-04T09:55:00.008Z,101236.79
2018-07-04T09:57:46.397Z,101242.49
2018-07-04T10:00:32.898Z,101245.56
2018-07-04T10:03:19.401Z,101246.68
2018-07-04T10:06:06.645Z,101246.31
2018-07-04T10:08:53.211Z,101244.50
2018-07-04T10:11:39.973Z,101247.70
2018-07-04T10:14:26.342Z,101247.34
2018-07-04T10:17:12.876Z,101240.69
2018-07-04T10:19:59.719Z,101248.84
2018-07-04T10:22:40.301Z,101236.64
2018-07-04T10:25:26.774Z,101230.56
2018-07-04T10:28:13.471Z,101229.48
2018-07-04T10:30:59.882Z,101220.65
2018-07-04T10:33:46.245Z,101221.86
2018-07-04T10:36:32.713Z,101220.01
2018-07-04T10:39:19.284Z,101214.77
2018-07-04T10:42:05.757Z,101214.58
2018-07-04T10:44:52.380Z,101212.84
2018-07-04T10:47:38.818Z,101220.89
2018-07-04T10:50:25.225Z,101213.53
2018-07-04T10:53:05.867Z,101216.22
2018-07-04T10:55:52.288Z,101218.30
2018-07-04T10:58:38.753Z,101216.75
2018-07-04T11:01:25.088Z,101209.23
2018-07-04T11:04:11.552Z,101204.98
2018-07-04T11:06:57.996Z,101207.95
2018-07-04T11:09:44.457Z,101205.18
2018-07-04T11:12:30.946Z,101200.08
2018-07-04T11:15:17.841Z,101201.46
2018-07-04T11:17:58.229Z,101195.05
2018-07-04T11:20:44.783Z,101195.87
2018-07-04T11:23:31.345Z,101196.08
2018-07-04T11:26:17.825Z,101192.30
2018-07-04T11:28:58.290Z,101189.87
2018-07-04T11:31:38.787Z,101196.78
2018-07-04T11:34:25.426Z,101196.58
2018-07-04T11:37:11.974Z,101189.17
2018-07-04T11:39:59.194Z,101189.61
2018-07-04T11:42:45.723Z,101177.77
2018-07-04T11:45:32.143Z,101172.02
2018-07-04T11:48:00.444Z,101172.95
2018-07-04T11:50:28.230Z,101170.16
2018-07-04T11:52:56.905Z,101172.63
2018-07-04T11:55:25.658Z,101179.95
2018-07-04T11:57:53.413Z,101177.00
2018-07-04T12:00:21.201Z,101177.92
2018-07-04T12:02:49.170Z,101178.38
2018-07-04T12:05:35.708Z,101171.75
2018-07-04T12:08:03.448Z,101177.67
2018-07-04T12:10:31.211Z,101180.99
2018-07-04T12:12:59.002Z,101182.87
2018-07-04T12:15:26.822Z,101180.36
2018-07-04T12:17:54.586Z,101174.97
2018-07-04T12:20:22.463Z,101177.10
2018-07-04T12:22:50.215Z,101170.58
2018-07-04T12:25:18.090Z,101164.62
2018-07-04T12:27:45.903Z,101170.18
2018-07-04T12:30:13.656Z,101163.84
2018-07-04T12:32:41.430Z,101144.42
2018-07-04T12:35:09.228Z,101149.20
2018-07-04T12:37:37.013Z,101162.44
2018-07-04T12:40:04.796Z,101148.19
2018-07-04T12:42:32.641Z,101147.80
2018-07-04T12:45:00.662Z,101159.06
2018-07-04T12:47:28.453Z,101149.89
2018-07-04T12:49:56.398Z,101141.39
2018-07-04T12:52:24.149Z,101150.95
2018-07-04T12:55:12.796Z,101138.33
2018-07-04T12:57:59.076Z,101139.91
2018-07-04T13:00:45.640Z,101132.13
2018-07-04T13:03:32.200Z,101130.73
2018-07-04T13:06:18.921Z,101123.67
2018-07-04T13:09:05.756Z,101124.39
2018-07-04T13:11:52.845Z,101122.48
2018-07-04T13:14:39.477Z,101112.39
2018-07-04T13:17:26.324Z,101123.97
2018-07-04T13:20:12.647Z,101109.80
2018-07-04T13:22:59.041Z,101117.06
2018-07-04T13:25:45.604Z,101109.28
2018-07-04T13:28:32.336Z,101109.80
2018-07-04T13:31:19.337Z,101101.58
2018-07-04T13:34:06.211Z,101108.12
2018-07-04T13:36:52.883Z,101103.90
2018-07-04T13:39:39.417Z,101098.50
2018-07-04T13:42:26.233Z,101093.34
2018-07-04T13:45:13.585Z,101086.30
2018-07-04T13:48:00.015Z,101084.31
2018-07-04T13:50:46.545Z,101078.91
2018-07-04T13:53:34.932Z,101072.73
2018-07-04T13:56:21.516Z,101070.66
2018-07-04T13:59:08.154Z,101070.47
2018-07-04T14:01:55.290Z,101070.50
2018-07-04T14:04:42.014Z,101068.00
2018-07-04T14:07:22.510Z,101068.62
2018-07-04T14:10:09.158Z,101067.40
2018-07-04T14:12:55.623Z,101070.38
2018-07-04T14:15:42.258Z,101059.09
2018-07-04T14:18:28.747Z,101063.25
2018-07-04T14:21:15.069Z,101054.87
2018-07-04T14:24:01.528Z,101056.98
2018-07-04T14:26:48.312Z,101059.87
2018-07-04T14:29:34.837Z,101056.05
2018-07-04T14:32:15.133Z,101052.28
2018-07-04T14:35:01.650Z,101056.89
2018-07-04T14:37:48.296Z,101048.78
2018-07-04T14:40:28.762Z,101043.34
2018-07-04T14:43:09.235Z,101052.53
2018-07-04T14:45:50.004Z,101061.29
2018-07-04T14:48:30.472Z,101057.87
2018-07-04T14:51:11.189Z,101060.30
2018-07-04T14:53:57.676Z,101065.85
2018-07-04T14:56:44.265Z,101059.65
2018-07-04T14:59:31.561Z,101057.69
2018-07-04T15:02:12.071Z,101066.00
2018-07-04T15:04:58.699Z,101052.41
2018-07-04T15:07:44.975Z,101054.23
2018-07-04T15:10:31.516Z,101048.59
2018-07-04T15:13:17.930Z,101044.14
2018-07-04T15:16:04.520Z,101041.79
2018-07-04T15:18:50.920Z,101038.30
2018-07-04T15:21:37.477Z,101035.28
2018-07-04T15:24:23.804Z,101040.28
2018-07-04T15:27:10.375Z,101042.28
2018-07-04T15:29:50.598Z,101037.38
2018-07-04T15:32:37.311Z,101043.53
2018-07-04T15:35:23.687Z,101036.53
2018-07-04T15:38:10.207Z,101033.97
2018-07-04T15:40:56.599Z,101030.88
2018-07-04T15:43:43.190Z,101035.61
2018-07-04T15:46:29.570Z,101034.27
2018-07-04T15:49:17.285Z,101030.37
2018-07-04T15:52:03.781Z,101030.19
2018-07-04T15:54:50.690Z,101019.36
2018-07-04T15:57:37.031Z,101020.48
2018-07-04T16:00:23.476Z,101020.95
2018-07-04T16:03:10.306Z,101016.28
2018-07-04T16:05:56.611Z,101012.31
2018-07-04T16:08:43.068Z,101012.80
2018-07-04T16:11:29.509Z,101018.14
2018-07-04T16:14:15.886Z,101026.76
2018-07-04T16:17:02.408Z,101024.59
2018-07-04T16:19:49.004Z,101013.70
2018-07-04T16:22:35.534Z,101014.84
2018-07-04T16:25:22.016Z,101008.60
2018-07-04T16:28:08.629Z,101012.40
2018-07-04T16:30:55.138Z,101012.41
2018-07-04T16:33:41.510Z,101011.66
2018-07-04T16:36:27.897Z,101008.70
2018-07-04T16:39:14.325Z,101010.06
2018-07-04T16:42:00.712Z,101009.38
2018-07-04T16:44:47.149Z,101005.44
2018-07-04T16:47:33.611Z,101008.59
2018-07-04T16:50:20.121Z,101011.14
2018-07-04T16:53:06.507Z,101008.59
2018-07-04T16:55:46.816Z,101010.42
2018-07-04T16:58:33.333Z,101000.98
2018-07-04T17:01:20.673Z,101007.67
2018-07-04T17:04:07.137Z,101003.98
2018-07-04T17:06:53.976Z,101007.69
2018-07-04T17:09:40.505Z,101014.30
2018-07-04T17:12:26.953Z,101009.41
2018-07-04T17:15:13.412Z,101013.71
2018-07-04T17:17:59.884Z,101017.03
2018-07-04T17:20:46.559Z,101024.47
2018-07-04T17:23:32.877Z,101024.59
2018-07-04T17:26:19.349Z,101018.42
2018-07-04T17:29:05.812Z,101022.81
2018-07-04T17:31:52.157Z,101028.05
2018-07-04T17:34:38.514Z,101026.94
2018-07-04T17:37:24.983Z,101014.72
2018-07-04T17:40:11.525Z,101023.84
2018-07-04T17:42:58.096Z,101027.28
2018-07-04T17:45:44.618Z,101022.48
2018-07-04T17:48:31.359Z,101019.46
2018-07-04T17:51:17.667Z,101013.24
2018-07-04T17:54:04.309Z,101015.16
2018-07-04T17:56:51.204Z,101016.92
2018-07-04T17:59:31.593Z,101025.28
2018-07-04T18:02:18.199Z,101016.25
2018-07-04T18:05:04.871Z,101025.41
2018-07-04T18:07:51.423Z,101013.46
2018-07-04T18:10:37.874Z,101018.22
2018-07-04T18:13:24.321Z,101019.02
2018-07-04T18:16:10.738Z,101016.02
2018-07-04T18:18:57.109Z,101017.70
2018-07-04T18:21:37.534Z,101019.03
2018-07-04T18:24:23.902Z,101017.09
2018-07-04T18:27:10.400Z,101014.25
2018-07-04T18:29:56.812Z,101018.16
2018-07-04T18:32:43.443Z,101019.17
2018-07-04T18:35:30.071Z,101012.46
2018-07-04T18:38:16.457Z,101023.60
2018-07-04T18:41:02.826Z,101011.50
2018-07-04T18:43:49.554Z,101015.22
2018-07-04T18:46:36.041Z,101015.70
2018-07-04T18:49:22.467Z,101015.63
2018-07-04T18:52:09.062Z,101021.16
2018-07-04T18:54:55.433Z,101026.17
2018-07-04T18:57:41.843Z,101034.58
2018-07-04T19:00:28.262Z,101033.78
2018-07-04T19:03:14.636Z,101039.27
2018-07-04T19:06:00.925Z,101036.06
2018-07-04T19:08:47.326Z,101031.25
2018-07-04T19:11:27.630Z,101030.70
2018-07-04T19:14:14.252Z,101027.92
2018-07-04T19:17:00.814Z,101019.49
2018-07-04T19:19:47.176Z,101017.78
2018-07-04T19:22:33.541Z,101017.59
2018-07-04T19:25:19.870Z,101015.68
2018-07-04T19:28:06.117Z,101013.64
2018-07-04T19:30:46.461Z,101012.91
2018-07-04T19:33:27.044Z,101016.68
2018-07-04T19:36:07.628Z,101013.36
2018-07-04T19:38:53.958Z,101017.91
2018-07-04T19:41:40.502Z,101015.38
2018-07-04T19:44:26.858Z,101021.19
2018-07-04T19:47:14.506Z,101019.66
2018-07-04T19:50:01.093Z,101018.42
2018-07-04T19:52:47.645Z,101025.77
2018-07-04T19:55:34.212Z,101024.17
2018-07-04T19:58:23.741Z,101025.88
2018-07-04T20:01:04.246Z,101020.16
2018-07-04T20:03:50.693Z,101025.73
2018-07-04T20:06:37.053Z,101020.70
2018-07-04T20:09:23.411Z,101015.73
2018-07-04T20:12:03.867Z,101012.28
2018-07-04T20:14:50.422Z,101020.17
2018-07-04T20:17:36.974Z,101012.23
2018-07-04T20:20:23.468Z,101014.48
2018-07-04T20:23:10.936Z,101021.59
2018-07-04T20:25:57.242Z,101022.66
2018-07-04T20:28:43.897Z,101020.11
2018-07-04T20:31:30.463Z,101019.13
2018-07-04T20:34:17.145Z,101024.86
2018-07-04T20:36:57.661Z,101025.77
2018-07-04T20:39:44.491Z,101026.35
2018-07-04T20:42:31.079Z,101024.84
2018-07-04T20:45:17.550Z,101027.60
2018-07-04T20:48:03.957Z,101028.17
2018-07-04T20:50:50.332Z,101039.44
2018-07-04T20:53:30.932Z,101041.13
2018-07-04T20:56:17.690Z,101047.52
2018-07-04T20:59:04.159Z,101038.12
2018-07-04T21:01:50.620Z,101034.80
2018-07-04T21:04:36.958Z,101040.03
2018-07-04T21:07:23.510Z,101044.04
2018-07-04T21:10:10.369Z,101042.47
2018-07-04T21:12:57.120Z,101045.62
2018-07-04T21:15:43.488Z,101042.41
2018-07-04T21:18:30.044Z,101040.63
2018-07-04T21:21:16.378Z,101048.61
2018-07-04T21:24:03.010Z,101038.88
2018-07-04T21:26:49.523Z,101041.59
2018-07-04T21:29:36.243Z,101045.19
2018-07-04T21:32:22.701Z,101038.74
2018-07-04T21:35:09.037Z,101042.06
2018-07-04T21:37:55.361Z,101044.41
2018-07-04T21:40:41.830Z,101053.02
2018-07-04T21:43:28.365Z,101051.49
2018-07-04T21:46:15.044Z,101057.30
2018-07-04T21:49:01.430Z,101062.56
2018-07-04T21:51:47.794Z,101063.78
2018-07-04T21:54:34.197Z,101062.94
2018-07-04T21:57:20.559Z,101062.62
2018-07-04T22:00:07.413Z,101060.67
2018-07-04T22:02:53.877Z,101056.28
2018-07-04T22:05:40.280Z,101054.18
2018-07-04T22:08:26.741Z,101058.86
2018-07-04T22:11:13.080Z,101048.35
2018-07-04T22:13:59.611Z,101049.70
2018-07-04T22:16:46.006Z,101055.95
2018-07-04T22:19:32.491Z,101056.86
2018-07-04T22:22:18.930Z,101053.83
2018-07-04T22:25:05.322Z,101055.08
2018-07-04T22:27:51.920Z,101051.73
2018-07-04T22:30:38.546Z,101048.00
2018-07-04T22:33:25.680Z,101056.88
2018-07-04T22:36:12.112Z,101052.80
2018-07-04T22:38:58.524Z,101053.64
2018-07-04T22:41:45.212Z,101057.61
2018-07-04T22:44:25.866Z,101053.48
2018-07-04T22:47:12.422Z,101059.74
2018-07-04T22:49:58.860Z,101058.58
2018-07-04T22:52:45.337Z,101057.87
2018-07-04T22:55:31.887Z,101049.97
2018-07-04T22:58:18.308Z,101039.05
2018-07-04T23:01:04.705Z,101043.37
2018-07-04T23:03:45.086Z,101040.89
2018-07-04T23:06:31.487Z,101032.45
2018-07-04T23:09:17.825Z,101023.80
2018-07-04T23:12:04.238Z,101027.66
2018-07-04T23:14:50.641Z,101023.50
2018-07-04T23:17:36.927Z,101026.44
2018-07-04T23:20:23.386Z,101022.20
2018-07-04T23:23:03.815Z,101027.89
2018-07-04T23:25:50.130Z,101026.55
2018-07-04T23:28:36.586Z,101027.09
2018-07-04T23:31:23.015Z,101026.25
2018-07-04T23:34:09.385Z,101019.53
2018-07-04T23:36:55.913Z,101022.89
2018-07-04T23:39:42.305Z,101029.61
2018-07-04T23:42:28.827Z,101032.58
2018-07-04T23:45:15.308Z,101038.98
2018-07-04T23:48:01.729Z,101035.55
2018-07-04T23:50:48.185Z,101040.20
2018-07-04T23:53:28.717Z,101040.52
2018-07-04T23:56:15.385Z,101048.69
2018-07-04T23:59:01.713Z,101051.34
